Terminal Aerodrome Forecast
Issued by NWS

Home | Current Version | Previous Version | Graphics & Text | Print | Product List | Glossary On
Versions: 1 2 3 4 5 6 7 8 9 10 11 12 13 14 15 16 17 18 19
000
FTUS43 KMPX 221100
TAFRNH
TAF
KRNH 221130Z 2212/2312 22010KT P6SM SCT015 BKN200
      TEMPO 2213/2215 BKN015
     FM221500 30013G20KT P6SM BKN015 BKN250
     FM221800 32016G22KT P6SM SCT025 SCT250
     FM230000 34007KT P6SM FEW250=

USA.gov is the U.S. government's official web portal to all federal, state and local government web resources and services.